sensor_id;sensor_type;location;lat;lon;timestamp;temperature;humidity
13346;DHT22;6742;48.036;15.780;2023-02-13T00:02:09;2.80;99.90
13346;DHT22;6742;48.036;15.780;2023-02-13T00:04:36;2.70;99.90
13346;DHT22;6742;48.036;15.780;2023-02-13T00:07:04;2.70;99.90
13346;DHT22;6742;48.036;15.780;2023-02-13T00:09:31;2.70;99.90
13346;DHT22;6742;48.036;15.780;2023-02-13T00:12:01;2.70;99.90
13346;DHT22;6742;48.036;15.780;2023-02-13T00:14:28;2.70;99.90
13346;DHT22;6742;48.036;15.780;2023-02-13T00:16:55;2.70;99.90
13346;DHT22;6742;48.036;15.780;2023-02-13T00:19:22;2.60;99.90
13346;DHT22;6742;48.036;15.780;2023-02-13T00:21:48;2.70;99.90
13346;DHT22;6742;48.036;15.780;2023-02-13T00:24:17;2.60;99.90
13346;DHT22;6742;48.036;15.780;2023-02-13T00:26:44;2.60;99.90
13346;DHT22;6742;48.036;15.780;2023-02-13T00:29:19;2.60;99.90
13346;DHT22;6742;48.036;15.780;2023-02-13T00:31:49;2.50;99.90
13346;DHT22;6742;48.036;15.780;2023-02-13T00:34:19;2.60;99.90
13346;DHT22;6742;48.036;15.780;2023-02-13T00:36:45;2.50;99.90
13346;DHT22;6742;48.036;15.780;2023-02-13T00:39:12;2.40;99.90
13346;DHT22;6742;48.036;15.780;2023-02-13T00:41:41;2.40;99.90
13346;DHT22;6742;48.036;15.780;2023-02-13T00:44:11;2.40;99.90
13346;DHT22;6742;48.036;15.780;2023-02-13T00:46:38;2.40;99.90
13346;DHT22;6742;48.036;15.780;2023-02-13T00:49:05;2.50;99.90
13346;DHT22;6742;48.036;15.780;2023-02-13T00:51:32;2.40;99.90
13346;DHT22;6742;48.036;15.780;2023-02-13T00:53:59;2.50;99.90
13346;DHT22;6742;48.036;15.780;2023-02-13T00:56:26;2.50;99.90
13346;DHT22;6742;48.036;15.780;2023-02-13T00:58:55;2.50;99.90
13346;DHT22;6742;48.036;15.780;2023-02-13T01:01:22;2.50;99.90
13346;DHT22;6742;48.036;15.780;2023-02-13T01:03:48;2.50;99.90
13346;DHT22;6742;48.036;15.780;2023-02-13T01:06:15;2.50;99.90
13346;DHT22;6742;48.036;15.780;2023-02-13T01:08:42;2.40;99.90
13346;DHT22;6742;48.036;15.780;2023-02-13T01:11:09;2.40;99.90
13346;DHT22;6742;48.036;15.780;2023-02-13T01:13:36;2.40;99.90
13346;DHT22;6742;48.036;15.780;2023-02-13T01:16:05;2.40;99.90
13346;DHT22;6742;48.036;15.780;2023-02-13T01:18:32;2.40;99.90
13346;DHT22;6742;48.036;15.780;2023-02-13T01:21:01;2.40;99.90
13346;DHT22;6742;48.036;15.780;2023-02-13T01:23:32;2.40;99.90
13346;DHT22;6742;48.036;15.780;2023-02-13T01:26:03;2.40;99.90
13346;DHT22;6742;48.036;15.780;2023-02-13T01:28:30;2.40;99.90
13346;DHT22;6742;48.036;15.780;2023-02-13T01:30:58;2.40;99.90
13346;DHT22;6742;48.036;15.780;2023-02-13T01:33:27;2.40;99.90
13346;DHT22;6742;48.036;15.780;2023-02-13T01:35:54;2.40;99.90
13346;DHT22;6742;48.036;15.780;2023-02-13T01:38:22;2.60;99.90
13346;DHT22;6742;48.036;15.780;2023-02-13T01:40:51;2.50;99.90
13346;DHT22;6742;48.036;15.780;2023-02-13T01:43:19;2.50;99.90
13346;DHT22;6742;48.036;15.780;2023-02-13T01:45:50;2.50;99.90
13346;DHT22;6742;48.036;15.780;2023-02-13T01:48:20;2.50;99.90
13346;DHT22;6742;48.036;15.780;2023-02-13T01:50:56;2.50;99.90
13346;DHT22;6742;48.036;15.780;2023-02-13T01:53:27;2.50;99.90
13346;DHT22;6742;48.036;15.780;2023-02-13T01:55:58;2.50;99.90
13346;DHT22;6742;48.036;15.780;2023-02-13T01:58:30;2.50;99.90
13346;DHT22;6742;48.036;15.780;2023-02-13T02:00:58;2.40;99.90
13346;DHT22;6742;48.036;15.780;2023-02-13T02:03:29;2.40;99.90
13346;DHT22;6742;48.036;15.780;2023-02-13T02:05:59;2.50;99.90
13346;DHT22;6742;48.036;15.780;2023-02-13T02:08:27;2.30;99.90
13346;DHT22;6742;48.036;15.780;2023-02-13T02:10:56;2.40;99.90
13346;DHT22;6742;48.036;15.780;2023-02-13T02:13:25;2.40;99.90
13346;DHT22;6742;48.036;15.780;2023-02-13T02:15:52;2.30;99.90
13346;DHT22;6742;48.036;15.780;2023-02-13T02:18:21;2.30;99.90
13346;DHT22;6742;48.036;15.780;2023-02-13T02:24:20;2.40;99.90
13346;DHT22;6742;48.036;15.780;2023-02-13T02:33:02;2.30;99.90
13346;DHT22;6742;48.036;15.780;2023-02-13T02:35:36;2.30;99.90
13346;DHT22;6742;48.036;15.780;2023-02-13T02:40:59;2.30;99.90
13346;DHT22;6742;48.036;15.780;2023-02-13T02:43:41;2.30;99.90
13346;DHT22;6742;48.036;15.780;2023-02-13T02:46:15;2.40;99.90
13346;DHT22;6742;48.036;15.780;2023-02-13T02:48:49;2.30;99.90
13346;DHT22;6742;48.036;15.780;2023-02-13T02:51:44;2.30;99.90
13346;DHT22;6742;48.036;15.780;2023-02-13T02:54:18;2.30;99.90
13346;DHT22;6742;48.036;15.780;2023-02-13T02:57:09;2.40;99.90
13346;DHT22;6742;48.036;15.780;2023-02-13T02:59:39;2.30;99.90
13346;DHT22;6742;48.036;15.780;2023-02-13T03:02:23;2.30;99.90
13346;DHT22;6742;48.036;15.780;2023-02-13T03:05:16;2.30;99.90
13346;DHT22;6742;48.036;15.780;2023-02-13T03:08:03;2.30;99.90
13346;DHT22;6742;48.036;15.780;2023-02-13T03:10:33;2.30;99.90
13346;DHT22;6742;48.036;15.780;2023-02-13T03:13:38;2.30;99.90
13346;DHT22;6742;48.036;15.780;2023-02-13T03:16:11;2.30;99.90
13346;DHT22;6742;48.036;15.780;2023-02-13T03:18:59;2.30;99.90
13346;DHT22;6742;48.036;15.780;2023-02-13T03:21:49;2.20;99.90
13346;DHT22;6742;48.036;15.780;2023-02-13T03:24:43;2.20;99.90
13346;DHT22;6742;48.036;15.780;2023-02-13T03:27:20;2.20;99.90
13346;DHT22;6742;48.036;15.780;2023-02-13T03:30:18;2.10;99.90
13346;DHT22;6742;48.036;15.780;2023-02-13T03:32:53;2.20;99.90
13346;DHT22;6742;48.036;15.780;2023-02-13T03:35:31;2.20;99.90
13346;DHT22;6742;48.036;15.780;2023-02-13T03:38:23;2.20;99.90
13346;DHT22;6742;48.036;15.780;2023-02-13T03:40:56;2.20;99.90
13346;DHT22;6742;48.036;15.780;2023-02-13T03:43:51;2.40;99.90
13346;DHT22;6742;48.036;15.780;2023-02-13T03:46:20;2.30;99.90
13346;DHT22;6742;48.036;15.780;2023-02-13T03:48:49;2.20;99.90
13346;DHT22;6742;48.036;15.780;2023-02-13T03:51:38;2.20;99.90
13346;DHT22;6742;48.036;15.780;2023-02-13T03:54:14;2.20;99.90
13346;DHT22;6742;48.036;15.780;2023-02-13T03:56:43;2.20;99.90
13346;DHT22;6742;48.036;15.780;2023-02-13T03:59:29;2.20;99.90
13346;DHT22;6742;48.036;15.780;2023-02-13T04:02:02;2.20;99.90
13346;DHT22;6742;48.036;15.780;2023-02-13T04:04:37;2.30;99.90
13346;DHT22;6742;48.036;15.780;2023-02-13T04:07:08;2.30;99.90
13346;DHT22;6742;48.036;15.780;2023-02-13T04:09:46;2.40;99.90
13346;DHT22;6742;48.036;15.780;2023-02-13T04:12:18;2.40;99.90
13346;DHT22;6742;48.036;15.780;2023-02-13T04:14:49;2.40;99.90
13346;DHT22;6742;48.036;15.780;2023-02-13T04:17:21;2.30;99.90
13346;DHT22;6742;48.036;15.780;2023-02-13T04:19:50;2.40;99.90
13346;DHT22;6742;48.036;15.780;2023-02-13T04:22:17;2.40;99.90
13346;DHT22;6742;48.036;15.780;2023-02-13T04:24:46;2.40;99.90
13346;DHT22;6742;48.036;15.780;2023-02-13T04:27:14;2.30;99.90
13346;DHT22;6742;48.036;15.780;2023-02-13T04:29:42;2.40;99.90
13346;DHT22;6742;48.036;15.780;2023-02-13T04:32:10;2.30;99.90
13346;DHT22;6742;48.036;15.780;2023-02-13T04:34:37;2.30;99.90
13346;DHT22;6742;48.036;15.780;2023-02-13T04:37:04;2.30;99.90
13346;DHT22;6742;48.036;15.780;2023-02-13T04:39:31;2.30;99.90
13346;DHT22;6742;48.036;15.780;2023-02-13T04:41:59;2.40;99.90
13346;DHT22;6742;48.036;15.780;2023-02-13T04:44:26;2.40;99.90
13346;DHT22;6742;48.036;15.780;2023-02-13T04:46:53;2.40;99.90
13346;DHT22;6742;48.036;15.780;2023-02-13T04:49:20;2.50;99.90
13346;DHT22;6742;48.036;15.780;2023-02-13T04:51:47;2.50;99.90
13346;DHT22;6742;48.036;15.780;2023-02-13T04:54:14;2.40;99.90
13346;DHT22;6742;48.036;15.780;2023-02-13T04:56:41;2.40;99.90
13346;DHT22;6742;48.036;15.780;2023-02-13T04:59:09;2.40;99.90
13346;DHT22;6742;48.036;15.780;2023-02-13T05:01:36;2.40;99.90
13346;DHT22;6742;48.036;15.780;2023-02-13T05:04:03;2.40;99.90
13346;DHT22;6742;48.036;15.780;2023-02-13T05:06:30;2.40;99.90
13346;DHT22;6742;48.036;15.780;2023-02-13T05:08:57;2.40;99.90
13346;DHT22;6742;48.036;15.780;2023-02-13T05:11:26;2.40;99.90
13346;DHT22;6742;48.036;15.780;2023-02-13T05:13:53;2.40;99.90
13346;DHT22;6742;48.036;15.780;2023-02-13T05:16:22;2.40;99.90
13346;DHT22;6742;48.036;15.780;2023-02-13T05:18:48;2.40;99.90
13346;DHT22;6742;48.036;15.780;2023-02-13T05:21:19;2.40;99.90
13346;DHT22;6742;48.036;15.780;2023-02-13T05:24:04;2.40;99.90
13346;DHT22;6742;48.036;15.780;2023-02-13T05:26:31;2.40;99.90
13346;DHT22;6742;48.036;15.780;2023-02-13T05:28:58;2.50;99.90
13346;DHT22;6742;48.036;15.780;2023-02-13T05:31:44;2.50;99.90
13346;DHT22;6742;48.036;15.780;2023-02-13T05:34:10;2.60;99.90
13346;DHT22;6742;48.036;15.780;2023-02-13T05:36:41;2.50;99.90
13346;DHT22;6742;48.036;15.780;2023-02-13T05:39:08;2.40;99.90
13346;DHT22;6742;48.036;15.780;2023-02-13T05:41:35;2.30;99.90
13346;DHT22;6742;48.036;15.780;2023-02-13T05:44:02;2.40;99.90
13346;DHT22;6742;48.036;15.780;2023-02-13T05:46:29;2.30;99.90
13346;DHT22;6742;48.036;15.780;2023-02-13T05:48:57;2.40;99.90
13346;DHT22;6742;48.036;15.780;2023-02-13T05:51:24;2.30;99.90
13346;DHT22;6742;48.036;15.780;2023-02-13T05:53:51;2.40;99.90
13346;DHT22;6742;48.036;15.780;2023-02-13T05:56:18;2.40;99.90
13346;DHT22;6742;48.036;15.780;2023-02-13T05:58:45;2.40;99.90
13346;DHT22;6742;48.036;15.780;2023-02-13T06:01:12;2.50;99.90
13346;DHT22;6742;48.036;15.780;2023-02-13T06:03:39;2.50;99.90
13346;DHT22;6742;48.036;15.780;2023-02-13T06:06:07;2.40;99.90
13346;DHT22;6742;48.036;15.780;2023-02-13T06:08:34;2.40;99.90
13346;DHT22;6742;48.036;15.780;2023-02-13T06:11:02;2.50;99.90
13346;DHT22;6742;48.036;15.780;2023-02-13T06:13:29;2.50;99.90
13346;DHT22;6742;48.036;15.780;2023-02-13T06:15:56;2.50;99.90
13346;DHT22;6742;48.036;15.780;2023-02-13T06:18:23;2.50;99.90
13346;DHT22;6742;48.036;15.780;2023-02-13T06:20:50;2.50;99.90
13346;DHT22;6742;48.036;15.780;2023-02-13T06:23:18;2.60;99.90
13346;DHT22;6742;48.036;15.780;2023-02-13T06:25:45;2.60;99.90
13346;DHT22;6742;48.036;15.780;2023-02-13T06:28:12;2.60;99.90
13346;DHT22;6742;48.036;15.780;2023-02-13T06:30:39;2.60;99.90
13346;DHT22;6742;48.036;15.780;2023-02-13T06:33:06;2.60;99.90
13346;DHT22;6742;48.036;15.780;2023-02-13T06:35:32;2.60;99.90
13346;DHT22;6742;48.036;15.780;2023-02-13T06:37:59;2.50;99.90
13346;DHT22;6742;48.036;15.780;2023-02-13T06:40:28;2.50;99.90
13346;DHT22;6742;48.036;15.780;2023-02-13T06:42:58;2.40;99.90
13346;DHT22;6742;48.036;15.780;2023-02-13T06:45:24;2.40;99.90
13346;DHT22;6742;48.036;15.780;2023-02-13T06:47:52;2.30;99.90
13346;DHT22;6742;48.036;15.780;2023-02-13T06:50:19;2.40;99.90
13346;DHT22;6742;48.036;15.780;2023-02-13T06:52:49;2.40;99.90
13346;DHT22;6742;48.036;15.780;2023-02-13T06:55:17;2.50;99.90
13346;DHT22;6742;48.036;15.780;2023-02-13T06:57:46;2.60;99.90
13346;DHT22;6742;48.036;15.780;2023-02-13T07:00:15;2.50;99.90
13346;DHT22;6742;48.036;15.780;2023-02-13T07:02:46;2.50;99.90
13346;DHT22;6742;48.036;15.780;2023-02-13T07:05:13;2.50;99.90
13346;DHT22;6742;48.036;15.780;2023-02-13T07:07:41;2.50;99.90
13346;DHT22;6742;48.036;15.780;2023-02-13T07:10:10;2.50;99.90
13346;DHT22;6742;48.036;15.780;2023-02-13T07:12:37;2.50;99.90
13346;DHT22;6742;48.036;15.780;2023-02-13T07:15:06;2.50;99.90
13346;DHT22;6742;48.036;15.780;2023-02-13T07:17:33;2.50;99.90
13346;DHT22;6742;48.036;15.780;2023-02-13T07:20:00;2.50;99.90
13346;DHT22;6742;48.036;15.780;2023-02-13T07:22:29;2.50;99.90
13346;DHT22;6742;48.036;15.780;2023-02-13T07:24:56;2.50;99.90
13346;DHT22;6742;48.036;15.780;2023-02-13T07:27:24;2.50;99.90
13346;DHT22;6742;48.036;15.780;2023-02-13T07:29:56;2.60;99.90
13346;DHT22;6742;48.036;15.780;2023-02-13T07:32:25;2.60;99.90
13346;DHT22;6742;48.036;15.780;2023-02-13T07:34:52;2.70;99.90
13346;DHT22;6742;48.036;15.780;2023-02-13T07:37:18;2.60;99.90
13346;DHT22;6742;48.036;15.780;2023-02-13T07:39:45;2.50;99.90
13346;DHT22;6742;48.036;15.780;2023-02-13T07:42:12;2.50;99.90
13346;DHT22;6742;48.036;15.780;2023-02-13T07:44:39;2.50;99.90
13346;DHT22;6742;48.036;15.780;2023-02-13T07:47:06;2.50;99.90
13346;DHT22;6742;48.036;15.780;2023-02-13T07:49:34;2.60;99.90
13346;DHT22;6742;48.036;15.780;2023-02-13T07:52:02;2.60;99.90
13346;DHT22;6742;48.036;15.780;2023-02-13T07:54:29;2.60;99.90
13346;DHT22;6742;48.036;15.780;2023-02-13T07:56:56;2.60;99.90
13346;DHT22;6742;48.036;15.780;2023-02-13T07:59:26;2.60;99.90
13346;DHT22;6742;48.036;15.780;2023-02-13T08:01:53;2.70;99.90
13346;DHT22;6742;48.036;15.780;2023-02-13T08:04:20;2.70;99.90
13346;DHT22;6742;48.036;15.780;2023-02-13T08:06:48;2.70;99.90
13346;DHT22;6742;48.036;15.780;2023-02-13T08:09:19;2.70;99.90
13346;DHT22;6742;48.036;15.780;2023-02-13T08:12:05;2.80;99.90
13346;DHT22;6742;48.036;15.780;2023-02-13T08:14:33;2.70;99.90
13346;DHT22;6742;48.036;15.780;2023-02-13T08:17:00;2.70;99.90
13346;DHT22;6742;48.036;15.780;2023-02-13T08:19:27;2.60;99.90
13346;DHT22;6742;48.036;15.780;2023-02-13T08:21:56;2.50;99.90
13346;DHT22;6742;48.036;15.780;2023-02-13T08:24:23;2.50;99.90
13346;DHT22;6742;48.036;15.780;2023-02-13T08:26:50;2.50;99.90
13346;DHT22;6742;48.036;15.780;2023-02-13T08:29:17;2.50;99.90
13346;DHT22;6742;48.036;15.780;2023-02-13T08:31:44;2.50;99.90
13346;DHT22;6742;48.036;15.780;2023-02-13T08:34:11;2.50;99.90
13346;DHT22;6742;48.036;15.780;2023-02-13T08:36:38;2.70;99.90
13346;DHT22;6742;48.036;15.780;2023-02-13T08:39:08;2.70;99.90
13346;DHT22;6742;48.036;15.780;2023-02-13T08:41:34;2.80;99.90
13346;DHT22;6742;48.036;15.780;2023-02-13T08:44:01;2.70;99.90
13346;DHT22;6742;48.036;15.780;2023-02-13T08:46:28;2.60;99.90
13346;DHT22;6742;48.036;15.780;2023-02-13T08:48:55;2.60;99.90
13346;DHT22;6742;48.036;15.780;2023-02-13T08:51:22;2.60;99.90
13346;DHT22;6742;48.036;15.780;2023-02-13T08:53:49;2.60;99.90
13346;DHT22;6742;48.036;15.780;2023-02-13T08:56:17;2.70;99.90
13346;DHT22;6742;48.036;15.780;2023-02-13T08:58:47;2.70;99.90
13346;DHT22;6742;48.036;15.780;2023-02-13T09:01:14;2.70;99.90
13346;DHT22;6742;48.036;15.780;2023-02-13T09:03:41;2.70;99.90
13346;DHT22;6742;48.036;15.780;2023-02-13T09:06:11;2.70;99.90
13346;DHT22;6742;48.036;15.780;2023-02-13T09:08:38;2.70;99.90
13346;DHT22;6742;48.036;15.780;2023-02-13T09:11:05;2.60;99.90
13346;DHT22;6742;48.036;15.780;2023-02-13T09:13:34;2.60;99.90
13346;DHT22;6742;48.036;15.780;2023-02-13T09:16:04;2.70;99.90
13346;DHT22;6742;48.036;15.780;2023-02-13T09:18:31;2.70;99.90
13346;DHT22;6742;48.036;15.780;2023-02-13T09:20:59;2.80;99.90
13346;DHT22;6742;48.036;15.780;2023-02-13T09:23:29;2.90;99.90
13346;DHT22;6742;48.036;15.780;2023-02-13T09:25:58;2.90;99.90
13346;DHT22;6742;48.036;15.780;2023-02-13T09:28:26;2.90;99.90
13346;DHT22;6742;48.036;15.780;2023-02-13T09:30:54;3.00;99.90
13346;DHT22;6742;48.036;15.780;2023-02-13T09:33:21;2.90;99.90
13346;DHT22;6742;48.036;15.780;2023-02-13T09:35:48;2.90;99.90
13346;DHT22;6742;48.036;15.780;2023-02-13T09:38:15;3.00;99.90
13346;DHT22;6742;48.036;15.780;2023-02-13T09:40:45;3.00;99.90
13346;DHT22;6742;48.036;15.780;2023-02-13T09:43:17;3.10;99.90
13346;DHT22;6742;48.036;15.780;2023-02-13T09:45:48;3.10;99.90
13346;DHT22;6742;48.036;15.780;2023-02-13T09:48:26;3.10;99.90
13346;DHT22;6742;48.036;15.780;2023-02-13T09:50:54;3.10;99.90
13346;DHT22;6742;48.036;15.780;2023-02-13T09:53:23;3.10;99.90
13346;DHT22;6742;48.036;15.780;2023-02-13T09:56:02;3.20;99.90
13346;DHT22;6742;48.036;15.780;2023-02-13T09:58:39;3.20;99.90
13346;DHT22;6742;48.036;15.780;2023-02-13T10:01:25;3.30;99.90
13346;DHT22;6742;48.036;15.780;2023-02-13T10:04:24;3.30;99.90
13346;DHT22;6742;48.036;15.780;2023-02-13T10:07:01;3.30;99.90
13346;DHT22;6742;48.036;15.780;2023-02-13T10:09:39;3.30;99.90
13346;DHT22;6742;48.036;15.780;2023-02-13T10:12:22;3.30;99.90
13346;DHT22;6742;48.036;15.780;2023-02-13T10:15:01;3.30;99.90
13346;DHT22;6742;48.036;15.780;2023-02-13T10:17:32;3.40;99.90
13346;DHT22;6742;48.036;15.780;2023-02-13T10:20:04;3.30;99.90
13346;DHT22;6742;48.036;15.780;2023-02-13T10:22:36;3.40;99.90
13346;DHT22;6742;48.036;15.780;2023-02-13T10:25:07;3.40;99.90
13346;DHT22;6742;48.036;15.780;2023-02-13T10:27:39;3.40;99.90
13346;DHT22;6742;48.036;15.780;2023-02-13T10:30:15;3.50;99.90
13346;DHT22;6742;48.036;15.780;2023-02-13T10:32:50;3.50;99.90
13346;DHT22;6742;48.036;15.780;2023-02-13T10:35:37;3.60;99.90
13346;DHT22;6742;48.036;15.780;2023-02-13T10:38:13;3.60;99.90
13346;DHT22;6742;48.036;15.780;2023-02-13T10:40:52;3.60;99.90
13346;DHT22;6742;48.036;15.780;2023-02-13T10:43:27;3.60;99.90
13346;DHT22;6742;48.036;15.780;2023-02-13T10:46:02;3.70;99.90
13346;DHT22;6742;48.036;15.780;2023-02-13T10:48:50;3.70;99.90
13346;DHT22;6742;48.036;15.780;2023-02-13T10:51:27;3.70;99.90
13346;DHT22;6742;48.036;15.780;2023-02-13T10:54:29;3.70;99.90
13346;DHT22;6742;48.036;15.780;2023-02-13T10:57:05;3.70;99.90
13346;DHT22;6742;48.036;15.780;2023-02-13T10:59:57;3.70;99.90
13346;DHT22;6742;48.036;15.780;2023-02-13T11:02:27;3.80;99.90
13346;DHT22;6742;48.036;15.780;2023-02-13T11:04:58;3.80;99.90
13346;DHT22;6742;48.036;15.780;2023-02-13T11:07:29;3.80;99.90
13346;DHT22;6742;48.036;15.780;2023-02-13T11:10:02;3.80;99.90
13346;DHT22;6742;48.036;15.780;2023-02-13T11:12:32;3.80;99.90
13346;DHT22;6742;48.036;15.780;2023-02-13T11:15:02;3.90;99.90
13346;DHT22;6742;48.036;15.780;2023-02-13T11:17:31;3.90;99.90
13346;DHT22;6742;48.036;15.780;2023-02-13T11:19:59;3.90;99.90
13346;DHT22;6742;48.036;15.780;2023-02-13T11:22:30;4.00;99.90
13346;DHT22;6742;48.036;15.780;2023-02-13T11:25:03;4.00;99.90
13346;DHT22;6742;48.036;15.780;2023-02-13T11:27:37;4.00;99.90
13346;DHT22;6742;48.036;15.780;2023-02-13T11:30:06;4.00;99.90
13346;DHT22;6742;48.036;15.780;2023-02-13T11:32:35;4.10;99.90
13346;DHT22;6742;48.036;15.780;2023-02-13T11:35:27;4.10;99.90
13346;DHT22;6742;48.036;15.780;2023-02-13T11:38:12;4.20;99.90
13346;DHT22;6742;48.036;15.780;2023-02-13T11:40:40;4.20;99.90
13346;DHT22;6742;48.036;15.780;2023-02-13T11:43:17;4.20;99.90
13346;DHT22;6742;48.036;15.780;2023-02-13T11:45:45;4.20;99.90
13346;DHT22;6742;48.036;15.780;2023-02-13T11:48:20;4.20;99.90
13346;DHT22;6742;48.036;15.780;2023-02-13T11:50:51;4.30;99.90
13346;DHT22;6742;48.036;15.780;2023-02-13T11:53:23;4.30;99.90
13346;DHT22;6742;48.036;15.780;2023-02-13T11:56:06;4.30;99.90
13346;DHT22;6742;48.036;15.780;2023-02-13T11:58:34;4.30;99.90
13346;DHT22;6742;48.036;15.780;2023-02-13T12:01:24;4.40;99.90
13346;DHT22;6742;48.036;15.780;2023-02-13T12:04:05;4.40;99.90
13346;DHT22;6742;48.036;15.780;2023-02-13T12:06:33;4.50;99.90
13346;DHT22;6742;48.036;15.780;2023-02-13T12:09:10;4.50;99.90
13346;DHT22;6742;48.036;15.780;2023-02-13T12:11:41;4.50;99.90
13346;DHT22;6742;48.036;15.780;2023-02-13T12:14:13;4.70;99.90
13346;DHT22;6742;48.036;15.780;2023-02-13T12:16:42;4.80;99.90
13346;DHT22;6742;48.036;15.780;2023-02-13T12:19:15;4.90;99.90
13346;DHT22;6742;48.036;15.780;2023-02-13T12:21:51;4.90;99.90
13346;DHT22;6742;48.036;15.780;2023-02-13T12:24:35;4.90;99.90
13346;DHT22;6742;48.036;15.780;2023-02-13T12:27:11;4.90;99.90
13346;DHT22;6742;48.036;15.780;2023-02-13T12:29:56;5.00;99.90
13346;DHT22;6742;48.036;15.780;2023-02-13T12:32:36;5.00;99.90
13346;DHT22;6742;48.036;15.780;2023-02-13T12:35:31;5.10;99.90
13346;DHT22;6742;48.036;15.780;2023-02-13T12:38:03;5.10;99.90
13346;DHT22;6742;48.036;15.780;2023-02-13T12:41:09;5.30;99.90
13346;DHT22;6742;48.036;15.780;2023-02-13T12:44:05;5.20;99.90
13346;DHT22;6742;48.036;15.780;2023-02-13T12:46:39;5.30;99.90
13346;DHT22;6742;48.036;15.780;2023-02-13T12:49:24;5.40;99.90
13346;DHT22;6742;48.036;15.780;2023-02-13T12:52:09;5.40;99.90
13346;DHT22;6742;48.036;15.780;2023-02-13T12:54:49;5.50;99.90
13346;DHT22;6742;48.036;15.780;2023-02-13T12:57:35;5.40;99.90
13346;DHT22;6742;48.036;15.780;2023-02-13T13:00:27;5.50;99.90
13346;DHT22;6742;48.036;15.780;2023-02-13T13:03:14;5.50;99.90
13346;DHT22;6742;48.036;15.780;2023-02-13T13:06:00;5.50;99.90
13346;DHT22;6742;48.036;15.780;2023-02-13T13:08:44;5.50;99.90
13346;DHT22;6742;48.036;15.780;2023-02-13T13:11:23;5.50;99.90
13346;DHT22;6742;48.036;15.780;2023-02-13T13:14:01;5.50;99.90
13346;DHT22;6742;48.036;15.780;2023-02-13T13:16:38;5.50;99.90
13346;DHT22;6742;48.036;15.780;2023-02-13T13:19:15;5.50;99.90
13346;DHT22;6742;48.036;15.780;2023-02-13T13:21:47;5.50;99.90
13346;DHT22;6742;48.036;15.780;2023-02-13T13:24:34;5.60;99.90
13346;DHT22;6742;48.036;15.780;2023-02-13T13:27:03;5.60;99.90
13346;DHT22;6742;48.036;15.780;2023-02-13T13:29:42;5.60;99.90
13346;DHT22;6742;48.036;15.780;2023-02-13T13:32:13;5.60;99.90
13346;DHT22;6742;48.036;15.780;2023-02-13T13:34:42;5.60;99.90
13346;DHT22;6742;48.036;15.780;2023-02-13T13:37:17;5.50;99.90
13346;DHT22;6742;48.036;15.780;2023-02-13T13:39:53;5.50;99.90
13346;DHT22;6742;48.036;15.780;2023-02-13T13:42:32;5.50;99.90
13346;DHT22;6742;48.036;15.780;2023-02-13T13:45:17;5.60;99.90
13346;DHT22;6742;48.036;15.780;2023-02-13T13:47:54;5.60;99.90
13346;DHT22;6742;48.036;15.780;2023-02-13T13:50:24;5.50;99.90
13346;DHT22;6742;48.036;15.780;2023-02-13T13:53:09;5.60;99.90
13346;DHT22;6742;48.036;15.780;2023-02-13T13:56:09;5.60;99.90
13346;DHT22;6742;48.036;15.780;2023-02-13T13:58:41;5.60;99.90
13346;DHT22;6742;48.036;15.780;2023-02-13T14:01:24;5.60;99.90
13346;DHT22;6742;48.036;15.780;2023-02-13T14:03:53;5.60;99.90
13346;DHT22;6742;48.036;15.780;2023-02-13T14:06:21;5.60;99.90
13346;DHT22;6742;48.036;15.780;2023-02-13T14:08:59;5.50;99.90
13346;DHT22;6742;48.036;15.780;2023-02-13T14:11:41;5.50;99.90
13346;DHT22;6742;48.036;15.780;2023-02-13T14:17:50;5.60;99.90
13346;DHT22;6742;48.036;15.780;2023-02-13T14:20:39;5.60;99.90
13346;DHT22;6742;48.036;15.780;2023-02-13T14:29:21;5.60;99.90
13346;DHT22;6742;48.036;15.780;2023-02-13T14:32:13;5.50;99.90
13346;DHT22;6742;48.036;15.780;2023-02-13T14:34:51;5.60;99.90
13346;DHT22;6742;48.036;15.780;2023-02-13T14:37:22;5.50;99.90
13346;DHT22;6742;48.036;15.780;2023-02-13T14:43:20;5.40;99.90
13346;DHT22;6742;48.036;15.780;2023-02-13T14:45:52;5.40;99.90
13346;DHT22;6742;48.036;15.780;2023-02-13T14:48:22;5.40;99.90
13346;DHT22;6742;48.036;15.780;2023-02-13T14:50:55;5.40;99.90
13346;DHT22;6742;48.036;15.780;2023-02-13T14:53:27;5.40;99.90
13346;DHT22;6742;48.036;15.780;2023-02-13T14:55:57;5.40;99.90
13346;DHT22;6742;48.036;15.780;2023-02-13T14:58:28;5.40;99.90
13346;DHT22;6742;48.036;15.780;2023-02-13T15:01:01;5.50;99.90
13346;DHT22;6742;48.036;15.780;2023-02-13T15:03:35;5.40;99.90
13346;DHT22;6742;48.036;15.780;2023-02-13T15:06:11;5.40;99.90
13346;DHT22;6742;48.036;15.780;2023-02-13T15:08:43;5.40;99.90
13346;DHT22;6742;48.036;15.780;2023-02-13T15:11:11;5.40;99.90
13346;DHT22;6742;48.036;15.780;2023-02-13T15:14:24;5.40;99.90
13346;DHT22;6742;48.036;15.780;2023-02-13T15:17:00;5.40;99.90
13346;DHT22;6742;48.036;15.780;2023-02-13T15:19:28;5.40;99.90
13346;DHT22;6742;48.036;15.780;2023-02-13T15:21:59;5.40;99.90
13346;DHT22;6742;48.036;15.780;2023-02-13T15:24:31;5.40;99.90
13346;DHT22;6742;48.036;15.780;2023-02-13T15:27:02;5.30;99.90
13346;DHT22;6742;48.036;15.780;2023-02-13T15:29:29;5.20;99.90
13346;DHT22;6742;48.036;15.780;2023-02-13T15:31:57;5.30;99.90
13346;DHT22;6742;48.036;15.780;2023-02-13T15:34:29;5.20;99.90
13346;DHT22;6742;48.036;15.780;2023-02-13T15:37:00;5.20;99.90
13346;DHT22;6742;48.036;15.780;2023-02-13T15:39:29;5.20;99.90
13346;DHT22;6742;48.036;15.780;2023-02-13T15:41:57;5.20;99.90
13346;DHT22;6742;48.036;15.780;2023-02-13T15:44:28;5.20;99.90
13346;DHT22;6742;48.036;15.780;2023-02-13T15:47:00;5.10;99.90
13346;DHT22;6742;48.036;15.780;2023-02-13T15:49:36;5.10;99.90
13346;DHT22;6742;48.036;15.780;2023-02-13T15:52:07;5.10;99.90
13346;DHT22;6742;48.036;15.780;2023-02-13T15:54:47;5.10;99.90
13346;DHT22;6742;48.036;15.780;2023-02-13T15:57:14;5.00;99.90
13346;DHT22;6742;48.036;15.780;2023-02-13T15:59:42;5.00;99.90
13346;DHT22;6742;48.036;15.780;2023-02-13T16:02:13;4.90;99.90
13346;DHT22;6742;48.036;15.780;2023-02-13T16:04:41;4.90;99.90
13346;DHT22;6742;48.036;15.780;2023-02-13T16:07:12;4.90;99.90
13346;DHT22;6742;48.036;15.780;2023-02-13T16:09:40;4.80;99.90
13346;DHT22;6742;48.036;15.780;2023-02-13T16:12:23;4.70;99.90
13346;DHT22;6742;48.036;15.780;2023-02-13T16:14:53;4.70;99.90
13346;DHT22;6742;48.036;15.780;2023-02-13T16:17:28;4.70;99.90
13346;DHT22;6742;48.036;15.780;2023-02-13T16:19:59;4.80;99.90
13346;DHT22;6742;48.036;15.780;2023-02-13T16:22:34;4.60;99.90
13346;DHT22;6742;48.036;15.780;2023-02-13T16:25:13;4.70;99.90
13346;DHT22;6742;48.036;15.780;2023-02-13T16:27:43;4.50;99.90
13346;DHT22;6742;48.036;15.780;2023-02-13T16:30:30;4.50;99.90
13346;DHT22;6742;48.036;15.780;2023-02-13T16:33:20;4.50;99.90
13346;DHT22;6742;48.036;15.780;2023-02-13T16:35:48;4.50;99.90
13346;DHT22;6742;48.036;15.780;2023-02-13T16:38:30;4.50;99.90
13346;DHT22;6742;48.036;15.780;2023-02-13T16:40:58;4.50;99.90
13346;DHT22;6742;48.036;15.780;2023-02-13T16:43:47;4.50;99.90
13346;DHT22;6742;48.036;15.780;2023-02-13T16:46:19;4.40;99.90